sensor_id;sensor_type;location;lat;lon;timestamp;P1;durP1;ratioP1;P2;durP2;ratioP2
4246;SDS011;2137;52.564;10.062;2022-08-04T00:00:08;1.46;;;0.86;;
4246;SDS011;2137;52.564;10.062;2022-08-04T00:00:25;2.40;;;1.17;;
4246;SDS011;2137;52.564;10.062;2022-08-04T00:00:43;2.97;;;1.30;;
4246;SDS011;2137;52.564;10.062;2022-08-04T00:01:03;3.90;;;1.20;;
4246;SDS011;2137;52.564;10.062;2022-08-04T00:01:25;2.08;;;1.05;;
4246;SDS011;2137;52.564;10.062;2022-08-04T00:01:44;1.85;;;1.10;;
4246;SDS011;2137;52.564;10.062;2022-08-04T00:02:02;3.38;;;1.00;;
4246;SDS011;2137;52.564;10.062;2022-08-04T00:02:26;2.45;;;1.15;;
4246;SDS011;2137;52.564;10.062;2022-08-04T00:02:57;3.17;;;0.85;;
4246;SDS011;2137;52.564;10.062;2022-08-04T00:03:15;2.90;;;1.13;;
4246;SDS011;2137;52.564;10.062;2022-08-04T00:03:38;2.35;;;1.10;;
4246;SDS011;2137;52.564;10.062;2022-08-04T00:04:00;1.30;;;1.10;;
4246;SDS011;2137;52.564;10.062;2022-08-04T00:04:21;1.70;;;1.00;;
4246;SDS011;2137;52.564;10.062;2022-08-04T00:04:41;1.65;;;1.00;;
4246;SDS011;2137;52.564;10.062;2022-08-04T00:05:02;1.95;;;0.98;;
4246;SDS011;2137;52.564;10.062;2022-08-04T00:05:22;2.42;;;1.05;;
4246;SDS011;2137;52.564;10.062;2022-08-04T00:05:47;1.95;;;1.00;;
4246;SDS011;2137;52.564;10.062;2022-08-04T00:06:12;2.53;;;1.05;;
4246;SDS011;2137;52.564;10.062;2022-08-04T00:06:33;2.65;;;1.15;;
4246;SDS011;2137;52.564;10.062;2022-08-04T00:06:55;2.33;;;1.20;;
4246;SDS011;2137;52.564;10.062;2022-08-04T00:07:15;3.00;;;1.17;;
4246;SDS011;2137;52.564;10.062;2022-08-04T00:07:59;1.95;;;0.95;;
4246;SDS011;2137;52.564;10.062;2022-08-04T00:08:21;1.30;;;1.10;;
4246;SDS011;2137;52.564;10.062;2022-08-04T00:08:39;3.25;;;1.00;;
4246;SDS011;2137;52.564;10.062;2022-08-04T00:08:59;3.35;;;1.00;;
4246;SDS011;2137;52.564;10.062;2022-08-04T00:09:20;1.55;;;1.13;;
4246;SDS011;2137;52.564;10.062;2022-08-04T00:09:42;2.90;;;1.17;;
4246;SDS011;2137;52.564;10.062;2022-08-04T00:10:00;2.95;;;1.60;;
4246;SDS011;2137;52.564;10.062;2022-08-04T00:10:17;2.85;;;1.40;;
4246;SDS011;2137;52.564;10.062;2022-08-04T00:10:37;1.60;;;1.10;;
4246;SDS011;2137;52.564;10.062;2022-08-04T00:10:54;0.98;;;0.82;;
4246;SDS011;2137;52.564;10.062;2022-08-04T00:11:13;0.95;;;0.80;;
4246;SDS011;2137;52.564;10.062;2022-08-04T00:11:31;2.10;;;1.30;;
4246;SDS011;2137;52.564;10.062;2022-08-04T00:11:48;2.28;;;1.20;;
4246;SDS011;2137;52.564;10.062;2022-08-04T00:12:07;1.60;;;1.00;;
4246;SDS011;2137;52.564;10.062;2022-08-04T00:12:27;1.20;;;0.90;;
4246;SDS011;2137;52.564;10.062;2022-08-04T00:12:47;1.08;;;0.98;;
4246;SDS011;2137;52.564;10.062;2022-08-04T00:13:05;2.05;;;1.00;;
4246;SDS011;2137;52.564;10.062;2022-08-04T00:13:23;2.53;;;0.90;;
4246;SDS011;2137;52.564;10.062;2022-08-04T00:13:41;1.80;;;0.80;;
4246;SDS011;2137;52.564;10.062;2022-08-04T00:14:20;2.28;;;1.25;;
4246;SDS011;2137;52.564;10.062;2022-08-04T00:14:39;3.03;;;1.13;;
4246;SDS011;2137;52.564;10.062;2022-08-04T00:14:58;2.72;;;1.13;;
4246;SDS011;2137;52.564;10.062;2022-08-04T00:15:15;3.50;;;1.02;;
4246;SDS011;2137;52.564;10.062;2022-08-04T00:15:33;1.20;;;0.82;;
4246;SDS011;2137;52.564;10.062;2022-08-04T00:15:51;1.20;;;0.75;;
4246;SDS011;2137;52.564;10.062;2022-08-04T00:16:08;2.05;;;0.90;;
4246;SDS011;2137;52.564;10.062;2022-08-04T00:16:26;2.15;;;0.82;;
4246;SDS011;2137;52.564;10.062;2022-08-04T00:16:53;1.75;;;1.15;;
4246;SDS011;2137;52.564;10.062;2022-08-04T00:17:13;1.95;;;1.20;;
4246;SDS011;2137;52.564;10.062;2022-08-04T00:17:31;2.30;;;1.05;;
4246;SDS011;2137;52.564;10.062;2022-08-04T00:17:48;1.77;;;1.00;;
4246;SDS011;2137;52.564;10.062;2022-08-04T00:18:06;2.30;;;1.10;;
4246;SDS011;2137;52.564;10.062;2022-08-04T00:18:26;1.80;;;1.20;;
4246;SDS011;2137;52.564;10.062;2022-08-04T00:18:45;1.33;;;0.93;;
4246;SDS011;2137;52.564;10.062;2022-08-04T00:19:06;2.25;;;0.90;;
4246;SDS011;2137;52.564;10.062;2022-08-04T00:19:25;1.58;;;0.75;;
4246;SDS011;2137;52.564;10.062;2022-08-04T00:19:46;1.28;;;0.66;;
4246;SDS011;2137;52.564;10.062;2022-08-04T00:20:04;2.30;;;0.80;;
4246;SDS011;2137;52.564;10.062;2022-08-04T00:20:21;3.00;;;1.05;;
4246;SDS011;2137;52.564;10.062;2022-08-04T00:20:40;2.78;;;1.00;;
4246;SDS011;2137;52.564;10.062;2022-08-04T00:20:58;1.50;;;1.02;;
4246;SDS011;2137;52.564;10.062;2022-08-04T00:21:15;2.03;;;1.00;;
4246;SDS011;2137;52.564;10.062;2022-08-04T00:21:36;1.80;;;0.90;;
4246;SDS011;2137;52.564;10.062;2022-08-04T00:22:00;2.95;;;1.05;;
4246;SDS011;2137;52.564;10.062;2022-08-04T00:22:18;2.88;;;1.30;;
4246;SDS011;2137;52.564;10.062;2022-08-04T00:22:38;1.70;;;1.40;;
4246;SDS011;2137;52.564;10.062;2022-08-04T00:22:55;2.80;;;1.10;;
4246;SDS011;2137;52.564;10.062;2022-08-04T00:23:13;2.95;;;1.10;;
4246;SDS011;2137;52.564;10.062;2022-08-04T00:23:32;3.30;;;1.42;;
4246;SDS011;2137;52.564;10.062;2022-08-04T00:24:09;4.32;;;1.60;;
4246;SDS011;2137;52.564;10.062;2022-08-04T00:24:28;2.22;;;1.40;;
4246;SDS011;2137;52.564;10.062;2022-08-04T00:24:47;2.45;;;1.65;;
4246;SDS011;2137;52.564;10.062;2022-08-04T00:25:04;2.42;;;1.70;;
4246;SDS011;2137;52.564;10.062;2022-08-04T00:25:21;2.33;;;1.63;;
4246;SDS011;2137;52.564;10.062;2022-08-04T00:25:38;1.40;;;1.15;;
4246;SDS011;2137;52.564;10.062;2022-08-04T00:25:56;2.38;;;1.30;;
4246;SDS011;2137;52.564;10.062;2022-08-04T00:26:13;2.92;;;1.48;;
4246;SDS011;2137;52.564;10.062;2022-08-04T00:26:32;4.53;;;1.33;;
4246;SDS011;2137;52.564;10.062;2022-08-04T00:26:51;3.67;;;1.02;;
4246;SDS011;2137;52.564;10.062;2022-08-04T00:27:08;2.08;;;1.20;;
4246;SDS011;2137;52.564;10.062;2022-08-04T00:27:25;2.00;;;1.05;;
4246;SDS011;2137;52.564;10.062;2022-08-04T00:27:44;1.92;;;1.20;;
4246;SDS011;2137;52.564;10.062;2022-08-04T00:28:02;1.90;;;1.20;;
4246;SDS011;2137;52.564;10.062;2022-08-04T00:28:19;3.17;;;1.38;;
4246;SDS011;2137;52.564;10.062;2022-08-04T00:28:37;2.45;;;1.42;;
4246;SDS011;2137;52.564;10.062;2022-08-04T00:28:53;2.35;;;1.48;;
4246;SDS011;2137;52.564;10.062;2022-08-04T00:29:12;2.05;;;1.40;;
4246;SDS011;2137;52.564;10.062;2022-08-04T00:29:30;2.00;;;1.13;;
4246;SDS011;2137;52.564;10.062;2022-08-04T00:29:48;1.27;;;1.00;;
4246;SDS011;2137;52.564;10.062;2022-08-04T00:30:08;1.86;;;1.00;;
4246;SDS011;2137;52.564;10.062;2022-08-04T00:30:26;2.15;;;1.08;;
4246;SDS011;2137;52.564;10.062;2022-08-04T00:30:43;2.67;;;1.23;;
4246;SDS011;2137;52.564;10.062;2022-08-04T00:31:00;2.92;;;1.35;;
4246;SDS011;2137;52.564;10.062;2022-08-04T00:31:17;2.03;;;1.05;;
4246;SDS011;2137;52.564;10.062;2022-08-04T00:31:54;2.20;;;1.02;;
4246;SDS011;2137;52.564;10.062;2022-08-04T00:32:13;1.20;;;0.95;;
4246;SDS011;2137;52.564;10.062;2022-08-04T00:32:49;3.28;;;1.10;;
4246;SDS011;2137;52.564;10.062;2022-08-04T00:33:06;1.85;;;1.10;;
4246;SDS011;2137;52.564;10.062;2022-08-04T00:33:23;1.25;;;0.90;;
4246;SDS011;2137;52.564;10.062;2022-08-04T00:33:42;1.60;;;0.90;;
4246;SDS011;2137;52.564;10.062;2022-08-04T00:34:00;2.60;;;1.02;;
4246;SDS011;2137;52.564;10.062;2022-08-04T00:34:18;3.15;;;1.20;;
4246;SDS011;2137;52.564;10.062;2022-08-04T00:34:35;3.22;;;1.10;;
4246;SDS011;2137;52.564;10.062;2022-08-04T00:34:52;2.17;;;1.05;;
4246;SDS011;2137;52.564;10.062;2022-08-04T00:35:12;1.65;;;1.15;;
4246;SDS011;2137;52.564;10.062;2022-08-04T00:35:30;1.95;;;1.23;;
4246;SDS011;2137;52.564;10.062;2022-08-04T00:35:48;1.65;;;1.02;;
4246;SDS011;2137;52.564;10.062;2022-08-04T00:36:05;1.10;;;0.90;;
4246;SDS011;2137;52.564;10.062;2022-08-04T00:36:22;1.60;;;1.10;;
4246;SDS011;2137;52.564;10.062;2022-08-04T00:36:41;1.92;;;1.20;;
4246;SDS011;2137;52.564;10.062;2022-08-04T00:36:59;2.08;;;1.00;;
4246;SDS011;2137;52.564;10.062;2022-08-04T00:37:17;2.47;;;1.00;;
4246;SDS011;2137;52.564;10.062;2022-08-04T00:37:36;4.55;;;1.10;;
4246;SDS011;2137;52.564;10.062;2022-08-04T00:37:53;3.00;;;1.15;;
4246;SDS011;2137;52.564;10.062;2022-08-04T00:38:11;1.67;;;1.40;;
4246;SDS011;2137;52.564;10.062;2022-08-04T00:38:31;2.03;;;1.35;;
4246;SDS011;2137;52.564;10.062;2022-08-04T00:38:49;1.98;;;1.17;;
4246;SDS011;2137;52.564;10.062;2022-08-04T00:39:07;2.88;;;1.17;;
4246;SDS011;2137;52.564;10.062;2022-08-04T00:39:26;1.67;;;1.10;;
4246;SDS011;2137;52.564;10.062;2022-08-04T00:39:43;1.58;;;1.10;;
4246;SDS011;2137;52.564;10.062;2022-08-04T00:40:03;1.83;;;1.02;;
4246;SDS011;2137;52.564;10.062;2022-08-04T00:40:24;1.48;;;1.20;;
4246;SDS011;2137;52.564;10.062;2022-08-04T00:40:46;1.75;;;1.10;;
4246;SDS011;2137;52.564;10.062;2022-08-04T00:41:07;1.50;;;1.20;;
4246;SDS011;2137;52.564;10.062;2022-08-04T00:41:30;2.30;;;1.08;;
4246;SDS011;2137;52.564;10.062;2022-08-04T00:42:25;2.35;;;1.10;;
4246;SDS011;2137;52.564;10.062;2022-08-04T00:42:43;2.67;;;1.00;;
4246;SDS011;2137;52.564;10.062;2022-08-04T00:43:16;3.25;;;1.08;;
4246;SDS011;2137;52.564;10.062;2022-08-04T00:43:37;2.05;;;1.05;;
4246;SDS011;2137;52.564;10.062;2022-08-04T00:44:03;0.80;;;0.77;;
4246;SDS011;2137;52.564;10.062;2022-08-04T00:44:23;3.50;;;1.00;;
4246;SDS011;2137;52.564;10.062;2022-08-04T00:44:47;1.20;;;1.10;;
4246;SDS011;2137;52.564;10.062;2022-08-04T00:45:17;4.63;;;1.08;;
4246;SDS011;2137;52.564;10.062;2022-08-04T00:45:43;1.08;;;0.98;;
4246;SDS011;2137;52.564;10.062;2022-08-04T00:46:27;3.40;;;0.82;;
4246;SDS011;2137;52.564;10.062;2022-08-04T00:46:59;1.63;;;1.38;;
4246;SDS011;2137;52.564;10.062;2022-08-04T00:47:28;5.30;;;1.25;;
4246;SDS011;2137;52.564;10.062;2022-08-04T00:47:51;3.58;;;1.65;;
4246;SDS011;2137;52.564;10.062;2022-08-04T00:48:14;1.92;;;1.35;;
4246;SDS011;2137;52.564;10.062;2022-08-04T00:48:42;1.45;;;1.15;;
4246;SDS011;2137;52.564;10.062;2022-08-04T00:49:51;1.52;;;1.00;;
4246;SDS011;2137;52.564;10.062;2022-08-04T00:50:11;1.13;;;1.02;;
4246;SDS011;2137;52.564;10.062;2022-08-04T00:50:32;1.58;;;1.10;;
4246;SDS011;2137;52.564;10.062;2022-08-04T00:50:51;1.70;;;1.23;;
4246;SDS011;2137;52.564;10.062;2022-08-04T00:51:14;2.30;;;1.15;;
4246;SDS011;2137;52.564;10.062;2022-08-04T00:51:34;2.85;;;1.20;;
4246;SDS011;2137;52.564;10.062;2022-08-04T00:51:55;2.47;;;1.27;;
4246;SDS011;2137;52.564;10.062;2022-08-04T00:52:43;2.28;;;1.05;;
4246;SDS011;2137;52.564;10.062;2022-08-04T00:53:07;2.65;;;0.80;;
4246;SDS011;2137;52.564;10.062;2022-08-04T00:53:27;1.65;;;1.00;;
4246;SDS011;2137;52.564;10.062;2022-08-04T00:53:50;1.60;;;1.00;;
4246;SDS011;2137;52.564;10.062;2022-08-04T00:54:10;2.40;;;1.10;;
4246;SDS011;2137;52.564;10.062;2022-08-04T00:54:31;1.13;;;0.85;;
4246;SDS011;2137;52.564;10.062;2022-08-04T00:54:55;1.02;;;0.88;;
4246;SDS011;2137;52.564;10.062;2022-08-04T00:55:18;2.00;;;0.90;;
4246;SDS011;2137;52.564;10.062;2022-08-04T00:55:43;3.13;;;1.17;;
4246;SDS011;2137;52.564;10.062;2022-08-04T00:56:21;2.10;;;1.20;;
4246;SDS011;2137;52.564;10.062;2022-08-04T00:56:54;2.22;;;1.17;;
4246;SDS011;2137;52.564;10.062;2022-08-04T00:57:22;2.35;;;1.23;;
4246;SDS011;2137;52.564;10.062;2022-08-04T00:57:52;2.83;;;1.33;;
4246;SDS011;2137;52.564;10.062;2022-08-04T00:58:16;2.75;;;1.38;;
4246;SDS011;2137;52.564;10.062;2022-08-04T00:58:48;1.75;;;1.20;;
4246;SDS011;2137;52.564;10.062;2022-08-04T00:59:13;3.35;;;0.95;;
4246;SDS011;2137;52.564;10.062;2022-08-04T00:59:35;5.57;;;1.20;;
4246;SDS011;2137;52.564;10.062;2022-08-04T01:00:04;3.40;;;1.10;;
4246;SDS011;2137;52.564;10.062;2022-08-04T01:00:21;4.90;;;1.15;;
4246;SDS011;2137;52.564;10.062;2022-08-04T01:00:41;4.18;;;1.08;;
4246;SDS011;2137;52.564;10.062;2022-08-04T01:01:01;1.65;;;1.10;;
4246;SDS011;2137;52.564;10.062;2022-08-04T01:01:21;1.20;;;0.95;;
4246;SDS011;2137;52.564;10.062;2022-08-04T01:01:50;1.10;;;0.90;;
4246;SDS011;2137;52.564;10.062;2022-08-04T01:02:14;1.45;;;0.90;;
4246;SDS011;2137;52.564;10.062;2022-08-04T01:02:35;1.35;;;1.08;;
4246;SDS011;2137;52.564;10.062;2022-08-04T01:02:59;1.50;;;1.10;;
4246;SDS011;2137;52.564;10.062;2022-08-04T01:03:20;1.20;;;0.80;;
4246;SDS011;2137;52.564;10.062;2022-08-04T01:03:44;2.10;;;0.90;;
4246;SDS011;2137;52.564;10.062;2022-08-04T01:04:08;1.30;;;0.90;;
4246;SDS011;2137;52.564;10.062;2022-08-04T01:04:28;1.42;;;0.85;;
4246;SDS011;2137;52.564;10.062;2022-08-04T01:04:56;3.67;;;1.20;;
4246;SDS011;2137;52.564;10.062;2022-08-04T01:05:14;2.60;;;1.00;;
4246;SDS011;2137;52.564;10.062;2022-08-04T01:05:39;2.25;;;1.17;;
4246;SDS011;2137;52.564;10.062;2022-08-04T01:06:02;1.88;;;0.90;;
4246;SDS011;2137;52.564;10.062;2022-08-04T01:06:28;2.00;;;1.00;;
4246;SDS011;2137;52.564;10.062;2022-08-04T01:06:54;1.40;;;0.93;;
4246;SDS011;2137;52.564;10.062;2022-08-04T01:07:21;2.20;;;1.33;;
4246;SDS011;2137;52.564;10.062;2022-08-04T01:07:58;1.83;;;1.05;;
4246;SDS011;2137;52.564;10.062;2022-08-04T01:08:29;2.55;;;1.23;;
4246;SDS011;2137;52.564;10.062;2022-08-04T01:08:54;1.20;;;0.95;;
4246;SDS011;2137;52.564;10.062;2022-08-04T01:09:23;1.48;;;1.20;;
4246;SDS011;2137;52.564;10.062;2022-08-04T01:09:43;1.65;;;1.10;;
4246;SDS011;2137;52.564;10.062;2022-08-04T01:10:07;1.08;;;0.82;;
4246;SDS011;2137;52.564;10.062;2022-08-04T01:10:36;2.72;;;1.00;;
4246;SDS011;2137;52.564;10.062;2022-08-04T01:10:57;1.67;;;1.02;;
4246;SDS011;2137;52.564;10.062;2022-08-04T01:11:22;1.63;;;0.88;;
4246;SDS011;2137;52.564;10.062;2022-08-04T01:11:44;2.85;;;1.05;;
4246;SDS011;2137;52.564;10.062;2022-08-04T01:12:16;4.00;;;1.02;;
4246;SDS011;2137;52.564;10.062;2022-08-04T01:12:46;2.08;;;1.00;;
4246;SDS011;2137;52.564;10.062;2022-08-04T01:13:45;2.95;;;1.10;;
4246;SDS011;2137;52.564;10.062;2022-08-04T01:14:10;2.13;;;0.77;;
4246;SDS011;2137;52.564;10.062;2022-08-04T01:14:35;2.90;;;1.30;;
4246;SDS011;2137;52.564;10.062;2022-08-04T01:15:04;3.35;;;1.05;;
4246;SDS011;2137;52.564;10.062;2022-08-04T01:15:23;1.33;;;1.13;;
4246;SDS011;2137;52.564;10.062;2022-08-04T01:15:44;2.17;;;1.30;;
4246;SDS011;2137;52.564;10.062;2022-08-04T01:16:16;2.03;;;0.73;;
4246;SDS011;2137;52.564;10.062;2022-08-04T01:16:34;1.60;;;1.02;;
4246;SDS011;2137;52.564;10.062;2022-08-04T01:17:05;1.77;;;1.20;;
4246;SDS011;2137;52.564;10.062;2022-08-04T01:17:32;1.73;;;1.10;;
4246;SDS011;2137;52.564;10.062;2022-08-04T01:17:55;2.40;;;1.30;;
4246;SDS011;2137;52.564;10.062;2022-08-04T01:18:19;1.55;;;1.17;;
4246;SDS011;2137;52.564;10.062;2022-08-04T01:18:40;1.30;;;1.00;;
4246;SDS011;2137;52.564;10.062;2022-08-04T01:19:00;1.25;;;1.00;;
4246;SDS011;2137;52.564;10.062;2022-08-04T01:19:28;1.80;;;1.10;;
4246;SDS011;2137;52.564;10.062;2022-08-04T01:19:58;2.20;;;1.20;;
4246;SDS011;2137;52.564;10.062;2022-08-04T01:20:19;2.45;;;1.10;;
4246;SDS011;2137;52.564;10.062;2022-08-04T01:20:39;2.10;;;0.95;;
4246;SDS011;2137;52.564;10.062;2022-08-04T01:21:04;1.40;;;1.00;;
4246;SDS011;2137;52.564;10.062;2022-08-04T01:21:30;2.15;;;1.05;;
4246;SDS011;2137;52.564;10.062;2022-08-04T01:22:08;1.27;;;1.15;;
4246;SDS011;2137;52.564;10.062;2022-08-04T01:24:03;1.48;;;1.23;;
4246;SDS011;2137;52.564;10.062;2022-08-04T01:24:25;3.90;;;1.20;;
4246;SDS011;2137;52.564;10.062;2022-08-04T01:24:58;2.72;;;1.30;;
4246;SDS011;2137;52.564;10.062;2022-08-04T01:25:28;1.95;;;1.35;;
4246;SDS011;2137;52.564;10.062;2022-08-04T01:26:01;1.92;;;1.02;;
4246;SDS011;2137;52.564;10.062;2022-08-04T01:26:49;1.45;;;1.35;;
4246;SDS011;2137;52.564;10.062;2022-08-04T01:27:17;2.53;;;1.30;;
4246;SDS011;2137;52.564;10.062;2022-08-04T01:27:42;1.88;;;1.30;;
4246;SDS011;2137;52.564;10.062;2022-08-04T01:28:10;2.78;;;1.73;;
4246;SDS011;2137;52.564;10.062;2022-08-04T01:28:35;4.40;;;1.52;;
4246;SDS011;2137;52.564;10.062;2022-08-04T01:29:04;2.33;;;1.30;;
4246;SDS011;2137;52.564;10.062;2022-08-04T01:29:25;1.63;;;1.38;;
4246;SDS011;2137;52.564;10.062;2022-08-04T01:29:58;2.30;;;1.20;;
4246;SDS011;2137;52.564;10.062;2022-08-04T01:30:16;1.83;;;1.48;;
4246;SDS011;2137;52.564;10.062;2022-08-04T01:30:33;3.20;;;1.80;;
4246;SDS011;2137;52.564;10.062;2022-08-04T01:30:52;3.45;;;1.58;;
4246;SDS011;2137;52.564;10.062;2022-08-04T01:31:13;4.90;;;1.38;;
4246;SDS011;2137;52.564;10.062;2022-08-04T01:31:34;2.05;;;1.33;;
4246;SDS011;2137;52.564;10.062;2022-08-04T01:32:00;2.10;;;1.30;;
4246;SDS011;2137;52.564;10.062;2022-08-04T01:32:19;2.72;;;1.30;;
4246;SDS011;2137;52.564;10.062;2022-08-04T01:32:43;3.88;;;1.38;;
4246;SDS011;2137;52.564;10.062;2022-08-04T01:33:03;4.18;;;1.45;;
4246;SDS011;2137;52.564;10.062;2022-08-04T01:33:20;2.20;;;1.40;;
4246;SDS011;2137;52.564;10.062;2022-08-04T01:33:39;1.70;;;1.40;;
4246;SDS011;2137;52.564;10.062;2022-08-04T01:34:18;1.80;;;1.20;;
4246;SDS011;2137;52.564;10.062;2022-08-04T01:34:37;1.65;;;1.10;;
4246;SDS011;2137;52.564;10.062;2022-08-04T01:34:59;1.83;;;1.20;;
4246;SDS011;2137;52.564;10.062;2022-08-04T01:35:21;1.75;;;1.23;;
4246;SDS011;2137;52.564;10.062;2022-08-04T01:36:01;2.38;;;1.45;;
4246;SDS011;2137;52.564;10.062;2022-08-04T01:36:19;1.83;;;1.40;;
4246;SDS011;2137;52.564;10.062;2022-08-04T01:36:41;2.13;;;1.40;;
4246;SDS011;2137;52.564;10.062;2022-08-04T01:37:07;4.63;;;1.50;;
4246;SDS011;2137;52.564;10.062;2022-08-04T01:37:28;3.60;;;1.48;;
4246;SDS011;2137;52.564;10.062;2022-08-04T01:37:53;2.10;;;1.65;;
4246;SDS011;2137;52.564;10.062;2022-08-04T01:38:15;4.00;;;1.84;;
4246;SDS011;2137;52.564;10.062;2022-08-04T01:38:38;8.32;;;1.70;;
4246;SDS011;2137;52.564;10.062;2022-08-04T01:38:55;6.22;;;1.50;;
4246;SDS011;2137;52.564;10.062;2022-08-04T01:39:11;1.58;;;1.30;;
4246;SDS011;2137;52.564;10.062;2022-08-04T01:39:48;3.88;;;1.75;;
4246;SDS011;2137;52.564;10.062;2022-08-04T01:40:06;2.22;;;1.50;;
4246;SDS011;2137;52.564;10.062;2022-08-04T01:40:24;2.40;;;1.60;;
4246;SDS011;2137;52.564;10.062;2022-08-04T01:40:41;2.70;;;1.30;;
4246;SDS011;2137;52.564;10.062;2022-08-04T01:41:01;2.85;;;1.35;;
4246;SDS011;2137;52.564;10.062;2022-08-04T01:41:19;2.67;;;1.58;;
4246;SDS011;2137;52.564;10.062;2022-08-04T01:41:48;2.70;;;1.70;;
4246;SDS011;2137;52.564;10.062;2022-08-04T01:42:13;1.62;;;1.20;;
4246;SDS011;2137;52.564;10.062;2022-08-04T01:42:48;4.70;;;1.58;;
4246;SDS011;2137;52.564;10.062;2022-08-04T01:43:08;2.55;;;1.35;;
4246;SDS011;2137;52.564;10.062;2022-08-04T01:43:25;2.08;;;1.30;;
4246;SDS011;2137;52.564;10.062;2022-08-04T01:43:43;2.78;;;1.65;;
4246;SDS011;2137;52.564;10.062;2022-08-04T01:44:01;3.53;;;1.30;;
4246;SDS011;2137;52.564;10.062;2022-08-04T01:44:19;2.88;;;1.08;;
4246;SDS011;2137;52.564;10.062;2022-08-04T01:44:37;2.92;;;1.20;;
4246;SDS011;2137;52.564;10.062;2022-08-04T01:44:55;3.42;;;1.13;;
4246;SDS011;2137;52.564;10.062;2022-08-04T01:45:15;3.85;;;1.25;;
4246;SDS011;2137;52.564;10.062;2022-08-04T01:45:31;3.10;;;1.42;;
4246;SDS011;2137;52.564;10.062;2022-08-04T01:45:49;7.38;;;1.38;;
4246;SDS011;2137;52.564;10.062;2022-08-04T01:46:06;6.03;;;1.20;;
4246;SDS011;2137;52.564;10.062;2022-08-04T01:46:25;2.80;;;1.42;;
4246;SDS011;2137;52.564;10.062;2022-08-04T01:46:45;2.92;;;1.20;;
4246;SDS011;2137;52.564;10.062;2022-08-04T01:47:06;2.03;;;1.10;;
4246;SDS011;2137;52.564;10.062;2022-08-04T01:47:22;1.75;;;1.30;;
4246;SDS011;2137;52.564;10.062;2022-08-04T01:47:42;2.22;;;1.38;;
4246;SDS011;2137;52.564;10.062;2022-08-04T01:47:59;2.47;;;1.60;;
4246;SDS011;2137;52.564;10.062;2022-08-04T01:48:18;1.95;;;1.60;;
4246;SDS011;2137;52.564;10.062;2022-08-04T01:48:39;1.83;;;1.40;;
4246;SDS011;2137;52.564;10.062;2022-08-04T01:48:56;1.40;;;1.05;;
4246;SDS011;2137;52.564;10.062;2022-08-04T01:49:13;2.22;;;1.20;;
4246;SDS011;2137;52.564;10.062;2022-08-04T01:49:31;2.30;;;1.33;;
4246;SDS011;2137;52.564;10.062;2022-08-04T01:49:58;2.35;;;1.40;;
4246;SDS011;2137;52.564;10.062;2022-08-04T01:50:17;1.98;;;1.38;;
4246;SDS011;2137;52.564;10.062;2022-08-04T01:50:34;7.75;;;1.65;;
4246;SDS011;2137;52.564;10.062;2022-08-04T01:50:51;8.30;;;1.48;;
4246;SDS011;2137;52.564;10.062;2022-08-04T01:51:09;2.97;;;1.38;;
4246;SDS011;2137;52.564;10.062;2022-08-04T01:51:26;2.16;;;1.32;;
4246;SDS011;2137;52.564;10.062;2022-08-04T01:51:43;2.40;;;1.42;;
4246;SDS011;2137;52.564;10.062;2022-08-04T01:52:00;3.45;;;1.42;;
4246;SDS011;2137;52.564;10.062;2022-08-04T01:52:18;4.46;;;1.80;;
4246;SDS011;2137;52.564;10.062;2022-08-04T01:52:36;3.00;;;1.65;;
4246;SDS011;2137;52.564;10.062;2022-08-04T01:52:54;2.03;;;1.13;;
4246;SDS011;2137;52.564;10.062;2022-08-04T01:53:11;1.60;;;1.15;;
4246;SDS011;2137;52.564;10.062;2022-08-04T01:53:29;1.67;;;1.20;;
4246;SDS011;2137;52.564;10.062;2022-08-04T01:53:46;2.47;;;1.40;;
4246;SDS011;2137;52.564;10.062;2022-08-04T01:54:03;3.38;;;1.60;;
4246;SDS011;2137;52.564;10.062;2022-08-04T01:54:20;4.22;;;1.73;;
4246;SDS011;2137;52.564;10.062;2022-08-04T01:54:40;3.22;;;1.63;;
4246;SDS011;2137;52.564;10.062;2022-08-04T01:54:57;2.00;;;1.50;;
4246;SDS011;2137;52.564;10.062;2022-08-04T01:55:15;2.13;;;1.30;;
4246;SDS011;2137;52.564;10.062;2022-08-04T01:55:33;2.47;;;1.30;;
4246;SDS011;2137;52.564;10.062;2022-08-04T01:56:11;2.17;;;1.25;;
4246;SDS011;2137;52.564;10.062;2022-08-04T01:56:28;2.28;;;1.23;;
4246;SDS011;2137;52.564;10.062;2022-08-04T01:56:46;1.38;;;1.10;;
4246;SDS011;2137;52.564;10.062;2022-08-04T01:57:05;1.80;;;1.15;;
4246;SDS011;2137;52.564;10.062;2022-08-04T01:57:43;2.08;;;1.58;;
4246;SDS011;2137;52.564;10.062;2022-08-04T01:58:00;1.42;;;1.30;;
4246;SDS011;2137;52.564;10.062;2022-08-04T01:58:19;2.13;;;1.15;;
4246;SDS011;2137;52.564;10.062;2022-08-04T01:58:36;2.15;;;1.33;;
4246;SDS011;2137;52.564;10.062;2022-08-04T01:58:54;3.28;;;1.70;;
4246;SDS011;2137;52.564;10.062;2022-08-04T01:59:13;2.38;;;1.40;;
4246;SDS011;2137;52.564;10.062;2022-08-04T01:59:32;1.30;;;0.90;;
4246;SDS011;2137;52.564;10.062;2022-08-04T01:59:49;2.35;;;0.82;;
4246;SDS011;2137;52.564;10.062;2022-08-04T02:00:12;2.50;;;1.20;;
4246;SDS011;2137;52.564;10.062;2022-08-04T02:00:28;2.30;;;1.10;;
4246;SDS011;2137;52.564;10.062;2022-08-04T02:00:49;1.80;;;1.02;;
4246;SDS011;2137;52.564;10.062;2022-08-04T02:01:12;2.00;;;1.02;;
4246;SDS011;2137;52.564;10.062;2022-08-04T02:01:31;1.60;;;1.17;;
4246;SDS011;2137;52.564;10.062;2022-08-04T02:01:51;1.00;;;0.90;;
4246;SDS011;2137;52.564;10.062;2022-08-04T02:02:08;2.80;;;1.20;;
4246;SDS011;2137;52.564;10.062;2022-08-04T02:02:25;3.22;;;1.10;;
4246;SDS011;2137;52.564;10.062;2022-08-04T02:02:43;2.53;;;0.95;;
4246;SDS011;2137;52.564;10.062;2022-08-04T02:03:01;2.05;;;1.40;;
4246;SDS011;2137;52.564;10.062;2022-08-04T02:03:17;2.65;;;1.48;;
4246;SDS011;2137;52.564;10.062;2022-08-04T02:03:35;3.45;;;1.10;;
4246;SDS011;2137;52.564;10.062;2022-08-04T02:04:13;1.90;;;1.20;;
4246;SDS011;2137;52.564;10.062;2022-08-04T02:04:37;1.63;;;0.90;;
4246;SDS011;2137;52.564;10.062;2022-08-04T02:04:55;2.22;;;1.00;;
4246;SDS011;2137;52.564;10.062;2022-08-04T02:05:13;3.35;;;1.00;;
4246;SDS011;2137;52.564;10.062;2022-08-04T02:05:30;1.80;;;0.90;;
4246;SDS011;2137;52.564;10.062;2022-08-04T02:06:10;1.80;;;1.15;;
4246;SDS011;2137;52.564;10.062;2022-08-04T02:06:31;5.22;;;1.20;;
4246;SDS011;2137;52.564;10.062;2022-08-04T02:06:51;5.05;;;1.10;;
4246;SDS011;2137;52.564;10.062;2022-08-04T02:07:19;2.20;;;0.95;;
4246;SDS011;2137;52.564;10.062;2022-08-04T02:07:40;3.78;;;1.10;;
4246;SDS011;2137;52.564;10.062;2022-08-04T02:08:01;2.33;;;1.08;;
4246;SDS011;2137;52.564;10.062;2022-08-04T02:08:20;2.22;;;1.20;;
4246;SDS011;2137;52.564;10.062;2022-08-04T02:08:39;1.77;;;1.10;;
4246;SDS011;2137;52.564;10.062;2022-08-04T02:09:02;2.58;;;1.23;;
4246;SDS011;2137;52.564;10.062;2022-08-04T02:09:21;1.67;;;1.05;;
4246;SDS011;2137;52.564;10.062;2022-08-04T02:09:42;1.17;;;0.90;;
4246;SDS011;2137;52.564;10.062;2022-08-04T02:10:13;1.58;;;0.93;;
4246;SDS011;2137;52.564;10.062;2022-08-04T02:10:34;2.40;;;1.13;;
4246;SDS011;2137;52.564;10.062;2022-08-04T02:11:02;2.45;;;0.88;;
4246;SDS011;2137;52.564;10.062;2022-08-04T02:11:20;1.45;;;0.80;;
4246;SDS011;2137;52.564;10.062;2022-08-04T02:11:38;2.88;;;0.85;;
4246;SDS011;2137;52.564;10.062;2022-08-04T02:11:59;3.30;;;0.93;;
4246;SDS011;2137;52.564;10.062;2022-08-04T02:12:26;2.63;;;1.23;;
4246;SDS011;2137;52.564;10.062;2022-08-04T02:12:51;1.52;;;1.10;;
4246;SDS011;2137;52.564;10.062;2022-08-04T02:13:10;1.70;;;1.10;;
4246;SDS011;2137;52.564;10.062;2022-08-04T02:13:32;2.17;;;1.20;;
4246;SDS011;2137;52.564;10.062;2022-08-04T02:13:53;2.33;;;1.27;;
4246;SDS011;2137;52.564;10.062;2022-08-04T02:14:14;1.83;;;0.90;;
4246;SDS011;2137;52.564;10.062;2022-08-04T02:14:58;1.95;;;1.20;;
4246;SDS011;2137;52.564;10.062;2022-08-04T02:15:18;2.65;;;1.35;;
4246;SDS011;2137;52.564;10.062;2022-08-04T02:15:39;2.28;;;1.02;;
4246;SDS011;2137;52.564;10.062;2022-08-04T02:16:00;1.80;;;0.98;;
4246;SDS011;2137;52.564;10.062;2022-08-04T02:16:20;2.58;;;1.20;;
4246;SDS011;2137;52.564;10.062;2022-08-04T02:16:42;2.85;;;1.30;;
4246;SDS011;2137;52.564;10.062;2022-08-04T02:17:11;1.35;;;1.23;;
4246;SDS011;2137;52.564;10.062;2022-08-04T02:17:28;1.35;;;1.10;;